Aérodrome :
LOGIN :

S'inscrire | Disclaimer

   EN    FR    IT 

 










Légende :    VFR   VFR Marginal   IFR   IFR Intensif   IFR Très Intensif
Visi : 
Plafond : 
>= 8 km
>= 3000ft
5 à 8 km
1000 à 3000 ft
1500m à 5 km
500 à 1000 ft
800 à 1500m
200 à 500 ft
< 800m
< 200 ft
Symboles :   Orages  Brouillard  Fortes neiges  Fortes précipitations  Vent > 20 kt
SIGMETs :   Divers  Orages  Givrage  Turbulence  Onde Orograph.  Cendres Volcan.






- Altitude de l'aérodrome : 665 ft
- Code IATA : NOC


EIKN - Connaught / Knock- Ireland West

DERNIER METAR :
  • 221600Z 04007KT 330V070 2200 BR BKN002 BKN006 06/06 Q0991 TEMPO 2000 BKN004

METARs EXPIRÉS :
  • 221530Z 04008KT 1200 BR BKN002 BKN006 06/06 Q0991 TEMPO 2000 BKN004
  • 221500Z 03008KT 360V060 0500 FG VV002 06/06 Q0991 TEMPO 2000 BKN004
  • 221430Z 03007KT 0500 -DZ FG VV002 06/06 Q0991 BECMG 2000 BKN004
  • 221400Z 03008KT 350V060 2000 -DZ OVC002 06/06 Q0991 BECMG BKN004
  • 221330Z 03007KT 360V060 0900 FG VV002 06/06 Q0991 BECMG 2000 BKN004

TAF AMD TAF EIKN
Valide du 22 à 13h jusqu'au 23 à 12h UTC


221306Z 2213/2312 03007KT 0500 -RADZ FG BKN002
BECMG 2213/2215 5000 BKN006
TEMPO 2214/2221 3000 -RADZ BR BKN004
TEMPO 2221/2310 2000 -RADZ BR BKN002
PROB30
TEMPO 2223/2309 0500 FG BKN001



MET'MAP, la Météo Aéronautique d'un coup d'oeil ! - Copyright ORBIFLY Décembre 2007 - Disclaimer

ORBIFLY MET'MAP TEAM :

Programmation & Développement : Alexandra Zaïnal
Conception & Développement : Baudouin d'Aumeries
Co-Programmation & Développement : Marc-Olivier Méhu
Soutien technique & logistique : Manuel Goepfert

Contact : metmap@orbifly.com




SOURCES & CREDITS :

   NOAA